Peck, Idaho
Current Conditions -  °F | °C
As of 12:56 PM on Tuesday 21 Oct 2014 (Local Time) from KLWS Reporting Station
Overcast Overcast  
Wind Chill: 61°   Ceiling: 7000
Heat Index: 61°   Visibility: 10mi
Dew Point: 43°   Wind: 6mph
Humidity: 52%   Direction: 290°WNW
Pressure: 29.95"   Gusts: NA
Location:  46.48°N, 116.42°W
Report Text: KLWS 211956Z 29005KT 10SM OVC070 16/06 A2995 RMK AO2 SLP141 T01610061
Loading
Personal Weather Stations






























Interactive Weather Map
Tropical Storm Tracking
New forecast layout! Learn more

10-Day Weather Forecast

Advertisements
Track Severe Weather on mobile